Time;durP1;ratioP1;P1;durP2;ratioP2;P2;SDS_P1;SDS_P2;PMS_P1;PMS_P2;Temp;Humidity;BMP_temperature;BMP_pressure;BME280_temperature;BME280_humidity;BME280_pressure;Samples;Min_cycle;Max_cycle;Signal;HPM_P1;HPM_P2
2022/09/11 00:00:51;;;;;;;8.93;5.47;;;16.80;99.90;;;;;;5090382;28;20170;-68
2022/09/11 00:03:18;;;;;;;8.93;5.40;;;16.80;99.90;;;;;;5091529;28;20051;-64
2022/09/11 00:05:45;;;;;;;6.18;4.18;;;16.80;99.90;;;;;;5092697;28;20384;-68
2022/09/11 00:08:13;;;;;;;10.85;6.00;;;16.80;99.90;;;;;;5093402;28;20059;-66
2022/09/11 00:10:41;;;;;;;9.88;6.30;;;16.80;99.90;;;;;;5091749;28;20078;-67
2022/09/11 00:13:11;;;;;;;9.40;4.35;;;16.80;99.90;;;;;;5092560;28;20133;-68
2022/09/11 00:15:42;;;;;;;6.75;4.45;;;16.70;99.90;;;;;;5093798;28;20070;-68
2022/09/11 00:18:12;;;;;;;7.55;4.32;;;16.80;99.90;;;;;;5060038;28;20535;-68
2022/09/11 00:20:38;;;;;;;6.47;4.40;;;16.90;99.90;;;;;;5073844;28;20081;-69
2022/09/11 00:23:04;;;;;;;7.63;4.18;;;16.80;99.90;;;;;;5073647;28;20052;-67
2022/09/11 00:25:36;;;;;;;9.70;5.05;;;17.00;99.90;;;;;;5070966;28;20234;-67
2022/09/11 00:28:02;;;;;;;7.70;4.20;;;16.90;99.90;;;;;;5071085;28;20119;-66
2022/09/11 00:30:28;;;;;;;7.78;4.97;;;17.10;99.90;;;;;;5069662;28;20060;-67
2022/09/11 00:32:54;;;;;;;9.35;4.22;;;17.20;99.90;;;;;;5070842;28;20124;-67
2022/09/11 00:35:20;;;;;;;7.80;4.00;;;17.00;99.90;;;;;;5068889;28;20071;-68
2022/09/11 00:37:47;;;;;;;9.52;3.92;;;16.90;99.90;;;;;;5071301;28;20044;-67
2022/09/11 00:40:14;;;;;;;7.30;3.60;;;17.00;99.90;;;;;;5071029;28;20063;-67
2022/09/11 00:42:40;;;;;;;5.43;3.55;;;17.00;99.90;;;;;;5069439;28;20041;-69
2022/09/11 00:45:15;;;;;;;9.27;4.28;;;17.00;99.90;;;;;;5070402;28;20290;-67
2022/09/11 00:47:42;;;;;;;6.82;3.47;;;16.90;99.90;;;;;;5078849;28;20060;-65
2022/09/11 00:50:15;;;;;;;13.73;11.63;;;17.00;99.90;;;;;;5070867;28;20388;-67
2022/09/11 00:52:48;;;;;;;;;;;16.80;99.90;;;;;;5069537;28;20056;-67
2022/09/11 00:55:17;;;;;;;22.67;20.38;;;16.70;99.90;;;;;;5070645;28;19930;-68
2022/09/11 00:57:52;;;;;;;24.45;21.83;;;16.20;99.90;;;;;;5070480;28;20050;-68
2022/09/11 01:00:18;;;;;;;24.50;21.85;;;16.10;99.90;;;;;;5070086;28;20075;-66
2022/09/11 01:02:48;;;;;;;26.15;23.45;;;15.80;99.90;;;;;;5071606;28;20056;-68
2022/09/11 01:05:15;;;;;;;27.17;24.55;;;15.90;99.90;;;;;;5071310;28;20059;-67
2022/09/11 01:07:42;;;;;;;29.10;25.55;;;15.80;99.90;;;;;;5071912;28;20083;-68
2022/09/11 01:10:09;;;;;;;30.40;25.83;;;15.70;99.90;;;;;;5071419;28;20109;-66
2022/09/11 01:13:06;;;;;;;28.55;25.50;;;15.60;99.90;;;;;;5072952;28;20067;-69
2022/09/11 01:15:46;;;;;;;30.70;27.23;;;15.50;99.90;;;;;;5072102;28;20573;-68
2022/09/11 01:18:35;;;;;;;29.77;26.65;;;15.40;99.90;;;;;;5071945;28;20048;-67
2022/09/11 01:21:37;;;;;;;31.40;28.42;;;15.20;99.90;;;;;;5070645;28;20411;-66
2022/09/11 01:24:18;;;;;;;33.58;28.45;;;15.10;99.90;;;;;;5071105;28;20143;-66
2022/09/11 01:27:05;;;;;;;33.17;29.52;;;15.10;99.90;;;;;;5070133;28;20093;-66
2022/09/11 01:29:48;;;;;;;29.95;26.83;;;15.00;99.90;;;;;;5070981;28;20676;-68
2022/09/11 01:32:14;;;;;;;32.40;27.42;;;15.10;99.90;;;;;;5070622;28;20151;-70
2022/09/11 01:34:58;;;;;;;32.75;29.02;;;15.00;99.90;;;;;;5070225;28;20098;-69
2022/09/11 01:37:43;;;;;;;30.17;26.95;;;15.20;99.90;;;;;;5070876;28;20370;-70
2022/09/11 01:40:25;;;;;;;31.52;28.15;;;15.20;99.90;;;;;;5072788;28;20044;-67
2022/09/11 01:42:58;;;;;;;30.10;26.88;;;15.30;99.90;;;;;;5071368;28;20044;-67
2022/09/11 01:45:25;;;;;;;28.52;25.50;;;15.30;99.90;;;;;;5073927;28;20052;-67
2022/09/11 01:47:52;;;;;;;29.05;25.98;;;15.40;99.90;;;;;;5074669;28;20048;-68
2022/09/11 01:50:20;;;;;;;28.40;25.17;;;15.20;99.90;;;;;;5073667;28;20059;-71
2022/09/11 01:52:54;;;;;;;31.50;24.25;;;15.20;99.90;;;;;;5073359;28;20048;-68
2022/09/11 01:55:39;;;;;;;25.58;22.85;;;15.20;99.90;;;;;;5073254;28;20119;-67
2022/09/11 01:58:14;;;;;;;26.83;22.38;;;15.20;99.90;;;;;;5075316;28;20042;-68
2022/09/11 02:00:43;;;;;;;24.38;21.95;;;15.30;99.90;;;;;;5074441;28;20650;-68
2022/09/11 02:03:40;;;;;;;24.98;22.27;;;15.50;99.90;;;;;;5088483;28;20066;-65
2022/09/11 02:06:15;;;;;;;26.90;22.38;;;15.50;99.90;;;;;;5067620;28;20060;-67
2022/09/11 02:08:41;;;;;;;28.30;24.67;;;15.30;99.90;;;;;;5073787;28;20085;-69
2022/09/11 02:11:09;;;;;;;31.30;26.85;;;15.30;99.90;;;;;;5072864;28;20044;-68
2022/09/11 02:13:58;;;;;;;30.30;27.10;;;15.30;99.90;;;;;;5071256;28;20045;-67
2022/09/11 02:16:42;;;;;;;30.13;25.23;;;15.10;99.90;;;;;;5071979;28;20050;-69
2022/09/11 02:19:11;;;;;;;29.33;25.13;;;15.10;99.90;;;;;;5070431;28;20040;-66
2022/09/11 02:21:37;;;;;;;28.15;24.85;;;15.10;99.90;;;;;;5070230;28;20036;-70
2022/09/11 02:24:03;;;;;;;28.08;25.15;;;15.00;99.90;;;;;;5082108;28;21203;-67
2022/09/11 02:26:34;;;;;;;31.00;24.80;;;14.80;99.90;;;;;;5088988;28;20483;-67
2022/09/11 02:29:00;;;;;;;34.72;28.67;;;14.70;99.90;;;;;;5088702;28;20474;-67
2022/09/11 02:31:26;;;;;;;37.13;30.85;;;14.70;99.90;;;;;;5087828;28;20051;-67
2022/09/11 02:33:52;;;;;;;31.33;27.85;;;14.70;99.90;;;;;;5089138;28;20086;-67
2022/09/11 02:36:23;;;;;;;38.17;32.67;;;14.60;99.90;;;;;;5082790;28;20595;-65
2022/09/11 02:39:22;;;;;;;42.22;35.10;;;14.50;99.90;;;;;;5088534;28;20124;-68
2022/09/11 02:42:20;;;;;;;32.58;27.65;;;14.50;99.90;;;;;;5088418;28;20541;-67
2022/09/11 02:44:58;;;;;;;32.00;28.55;;;14.60;99.90;;;;;;5088483;28;20402;-67
2022/09/11 02:48:00;;;;;;;36.67;29.02;;;14.40;99.90;;;;;;5068291;28;20127;-68
2022/09/11 02:50:44;;;;;;;37.88;32.97;;;14.50;99.90;;;;;;5088382;28;20047;-67
2022/09/11 02:53:23;;;;;;;39.15;34.50;;;14.40;99.90;;;;;;5088059;28;20043;-68
2022/09/11 02:56:16;;;;;;;38.95;31.40;;;14.50;99.90;;;;;;5088644;28;20482;-67
2022/09/11 02:58:49;;;;;;;38.43;31.53;;;14.40;99.90;;;;;;5087562;28;20055;-69
2022/09/11 03:01:16;;;;;;;34.78;31.20;;;14.50;99.90;;;;;;5068404;28;20051;-67
2022/09/11 03:03:44;;;;;;;34.28;29.38;;;14.50;99.90;;;;;;5069442;28;20786;-67
2022/09/11 03:06:17;;;;;;;35.53;29.73;;;14.50;99.90;;;;;;5067684;28;20048;-67
2022/09/11 03:08:43;;;;;;;38.33;30.83;;;14.50;99.90;;;;;;5069482;28;20356;-67
2022/09/11 03:11:09;;;;;;;32.47;29.17;;;14.80;99.90;;;;;;5069123;28;20137;-67
2022/09/11 03:13:35;;;;;;;33.45;29.83;;;14.80;99.90;;;;;;5067444;28;20044;-65
2022/09/11 03:16:03;;;;;;;35.80;31.95;;;14.60;99.90;;;;;;5067651;28;20375;-68
2022/09/11 03:18:29;;;;;;;33.40;29.95;;;14.90;99.90;;;;;;5069067;28;20574;-66
2022/09/11 03:20:55;;;;;;;32.25;28.83;;;14.80;99.90;;;;;;5069507;28;20965;-68
2022/09/11 03:23:21;;;;;;;31.15;27.88;;;14.90;99.90;;;;;;5069399;28;20048;-68
2022/09/11 03:25:47;;;;;;;34.58;30.98;;;14.80;99.90;;;;;;5068775;28;20051;-70
2022/09/11 03:28:13;;;;;;;34.08;30.48;;;14.80;99.90;;;;;;5068529;28;20554;-68
2022/09/11 03:30:40;;;;;;;38.30;32.40;;;14.70;99.90;;;;;;5068699;28;20119;-67
2022/09/11 03:33:06;;;;;;;41.38;32.85;;;14.40;99.90;;;;;;5071804;28;20471;-69
2022/09/11 03:35:32;;;;;;;46.10;36.85;;;14.50;99.90;;;;;;5072578;28;20056;-67
2022/09/11 03:37:58;;;;;;;47.78;36.17;;;14.50;99.90;;;;;;5080583;28;20601;-67
2022/09/11 03:40:24;;;;;;;38.50;31.92;;;14.40;99.90;;;;;;5091637;28;20050;-70
2022/09/11 03:42:50;;;;;;;40.08;33.25;;;14.20;99.90;;;;;;5090395;28;20462;-67
2022/09/11 03:45:16;;;;;;;43.63;37.10;;;14.30;99.90;;;;;;5090683;28;20670;-67
2022/09/11 03:47:41;;;;;;;37.67;31.55;;;14.20;99.90;;;;;;5091278;28;20047;-67
2022/09/11 03:50:09;;;;;;;40.33;34.67;;;14.10;99.90;;;;;;5091896;28;20375;-67
2022/09/11 03:52:35;;;;;;;39.72;33.70;;;14.00;99.90;;;;;;5091625;28;20409;-67
2022/09/11 03:55:02;;;;;;;41.85;35.47;;;14.10;99.90;;;;;;5091941;28;20051;-68
2022/09/11 03:57:28;;;;;;;57.78;44.08;;;14.00;99.90;;;;;;5093022;28;20406;-68
2022/09/11 03:59:55;;;;;;;54.95;40.72;;;13.90;99.90;;;;;;5094215;27;21048;-67
2022/09/11 04:02:22;;;;;;;44.38;35.67;;;13.80;99.90;;;;;;5093478;28;20087;-67
2022/09/11 04:04:48;;;;;;;63.15;44.65;;;13.90;99.90;;;;;;5081852;28;20052;-68
2022/09/11 04:07:14;;;;;;;49.40;40.20;;;13.90;99.90;;;;;;5074822;28;20470;-66
2022/09/11 04:09:39;;;;;;;43.90;35.65;;;13.80;99.90;;;;;;5073286;28;20051;-68
2022/09/11 04:12:05;;;;;;;64.53;43.85;;;13.80;99.90;;;;;;5074228;28;20130;-68
2022/09/11 04:14:31;;;;;;;59.00;44.08;;;13.70;99.90;;;;;;5073309;28;20813;-66
2022/09/11 04:16:58;;;;;;;45.30;36.90;;;13.60;99.90;;;;;;5091307;28;20047;-67
2022/09/11 04:19:24;;;;;;;46.60;38.17;;;13.70;99.90;;;;;;5059092;28;20835;-66
2022/09/11 04:21:49;;;;;;;38.42;34.38;;;13.60;99.90;;;;;;5093854;28;20382;-67
2022/09/11 04:24:15;;;;;;;47.53;38.67;;;13.60;99.90;;;;;;5074246;28;20051;-66
2022/09/11 04:26:41;;;;;;;46.65;38.35;;;13.50;99.90;;;;;;5085628;28;20473;-70
2022/09/11 04:29:07;;;;;;;48.28;38.42;;;13.50;99.90;;;;;;5093458;28;20054;-67
2022/09/11 04:31:35;;;;;;;51.58;40.35;;;13.60;99.90;;;;;;5093222;28;20112;-67
2022/09/11 04:34:01;;;;;;;58.47;41.40;;;13.70;99.90;;;;;;5092395;28;20523;-68
2022/09/11 04:36:28;;;;;;;52.63;40.78;;;13.70;99.90;;;;;;5092835;28;20046;-68
2022/09/11 04:38:56;;;;;;;53.22;43.00;;;13.60;99.90;;;;;;5093151;28;20048;-67
2022/09/11 04:41:23;;;;;;;53.63;41.38;;;13.60;99.90;;;;;;5093320;28;20077;-67
2022/09/11 04:43:53;;;;;;;47.08;40.42;;;13.70;99.90;;;;;;5092252;28;20609;-67
2022/09/11 04:46:18;;;;;;;52.30;41.35;;;13.70;99.90;;;;;;5092959;28;20046;-67
2022/09/11 04:48:46;;;;;;;69.20;49.97;;;13.60;99.90;;;;;;5093122;28;20430;-68
2022/09/11 04:51:21;;;;;;;63.58;48.22;;;13.40;99.90;;;;;;5093876;28;20437;-66
2022/09/11 04:53:48;;;;;;;47.90;41.63;;;13.30;99.90;;;;;;5091575;28;20580;-69
2022/09/11 04:56:14;;;;;;;57.22;41.47;;;13.30;99.90;;;;;;5074800;28;20751;-67
2022/09/11 04:58:41;;;;;;;93.97;55.13;;;13.30;99.90;;;;;;5083284;28;20035;-67
2022/09/11 05:01:13;;;;;;;65.35;47.47;;;13.30;99.90;;;;;;5072605;28;20575;-68
2022/09/11 05:03:40;;;;;;;50.42;40.95;;;13.20;99.90;;;;;;5073912;28;20048;-68
2022/09/11 05:06:07;;;;;;;69.82;49.05;;;13.40;99.90;;;;;;5074034;28;20048;-68
2022/09/11 05:08:33;;;;;;;56.80;41.78;;;13.30;99.90;;;;;;5076479;28;20302;-68
2022/09/11 05:11:05;;;;;;;62.80;46.42;;;13.20;99.90;;;;;;5074506;28;20358;-67
2022/09/11 05:13:34;;;;;;;49.05;39.42;;;13.30;99.90;;;;;;5073660;28;20507;-67
2022/09/11 05:16:04;;;;;;;60.88;45.05;;;13.10;99.90;;;;;;5072132;28;20056;-67
2022/09/11 05:18:30;;;;;;;61.30;45.65;;;13.20;99.90;;;;;;5073805;28;20058;-67
2022/09/11 05:21:04;;;;;;;58.92;45.90;;;13.20;99.90;;;;;;5073859;28;20056;-69
2022/09/11 05:23:30;;;;;;;58.38;44.15;;;13.20;99.90;;;;;;5070678;28;20393;-70
2022/09/11 05:26:03;;;;;;;59.25;42.92;;;13.20;99.90;;;;;;5072156;28;20063;-70
2022/09/11 05:28:30;;;;;;;56.13;42.80;;;13.20;99.90;;;;;;5072973;28;20054;-66
2022/09/11 05:30:57;;;;;;;58.33;44.08;;;13.10;99.90;;;;;;5073040;28;20040;-67
2022/09/11 05:33:24;;;;;;;54.72;43.42;;;13.10;99.90;;;;;;5071985;28;20056;-68
2022/09/11 05:35:51;;;;;;;56.47;41.88;;;13.10;99.90;;;;;;5070275;28;20432;-66
2022/09/11 05:38:21;;;;;;;49.58;39.33;;;13.10;99.90;;;;;;5070214;28;20040;-67
2022/09/11 05:40:51;;;;;;;42.00;35.53;;;13.30;99.90;;;;;;5069636;28;20418;-67
2022/09/11 05:43:18;;;;;;;44.55;37.35;;;13.30;99.90;;;;;;5075212;28;20963;-67
2022/09/11 05:45:52;;;;;;;46.67;39.40;;;13.30;99.90;;;;;;5087492;28;20062;-66
2022/09/11 05:48:18;;;;;;;49.25;41.03;;;13.40;99.90;;;;;;5089446;28;20405;-68
2022/09/11 05:50:55;;;;;;;47.70;38.53;;;13.40;99.90;;;;;;5088936;28;20609;-69
2022/09/11 05:53:21;;;;;;;48.97;40.90;;;13.50;99.90;;;;;;5088601;28;20524;-67
2022/09/11 05:55:48;;;;;;;49.85;40.72;;;13.70;99.90;;;;;;5086862;28;20043;-67
2022/09/11 05:58:17;;;;;;;55.80;43.50;;;13.70;99.90;;;;;;5088740;28;20062;-68
2022/09/11 06:00:46;;;;;;;56.60;43.90;;;13.70;99.90;;;;;;5088625;28;20475;-67
2022/09/11 06:03:16;;;;;;;48.75;40.38;;;13.90;99.90;;;;;;5087553;28;20075;-67
2022/09/11 06:05:42;;;;;;;47.45;38.40;;;14.00;99.90;;;;;;5088595;28;20390;-67
2022/09/11 06:08:09;;;;;;;39.35;34.22;;;14.10;99.90;;;;;;5088246;28;20912;-68
2022/09/11 06:10:36;;;;;;;37.33;33.38;;;14.20;99.90;;;;;;5088403;28;20405;-67
2022/09/11 06:13:02;;;;;;;38.63;34.50;;;14.40;99.90;;;;;;5088682;28;20061;-66
2022/09/11 06:15:28;;;;;;;35.45;31.75;;;14.50;99.90;;;;;;5088798;28;20128;-68
2022/09/11 06:17:54;;;;;;;36.85;33.03;;;14.50;99.90;;;;;;5088564;28;20044;-68
2022/09/11 06:20:20;;;;;;;34.88;31.38;;;14.40;99.90;;;;;;5088240;28;20414;-69
2022/09/11 06:22:46;;;;;;;29.55;26.27;;;14.80;99.90;;;;;;5087540;28;20047;-67
2022/09/11 06:25:12;;;;;;;29.83;26.50;;;15.30;99.90;;;;;;5087196;28;20533;-70
2022/09/11 06:27:37;;;;;;;21.55;19.42;;;15.60;99.90;;;;;;5088784;28;20064;-67
2022/09/11 06:30:03;;;;;;;18.85;16.88;;;16.10;99.90;;;;;;5088961;28;20442;-67
2022/09/11 06:32:29;;;;;;;13.50;12.40;;;16.40;99.90;;;;;;5088192;28;20097;-68
2022/09/11 06:34:55;;;;;;;12.90;11.68;;;16.80;99.90;;;;;;5082790;28;20051;-68
2022/09/11 06:37:20;;;;;;;15.20;13.88;;;17.20;99.90;;;;;;5067399;28;20044;-67
2022/09/11 06:39:46;;;;;;;11.05;9.90;;;17.50;99.90;;;;;;5068797;28;20051;-67
2022/09/11 06:42:11;;;;;;;9.82;8.90;;;17.70;99.90;;;;;;5051251;28;20054;-69
2022/09/11 06:44:37;;;;;;;10.10;9.07;;;18.30;99.90;;;;;;5067493;28;20097;-67
2022/09/11 06:47:03;;;;;;;9.55;8.63;;;18.40;99.90;;;;;;5068700;28;20132;-67
2022/09/11 06:49:29;;;;;;;9.38;8.32;;;18.30;99.90;;;;;;5068337;28;20108;-67
2022/09/11 06:51:54;;;;;;;8.68;7.95;;;18.60;99.90;;;;;;5067477;28;20473;-68
2022/09/11 06:54:20;;;;;;;8.93;8.13;;;18.70;99.90;;;;;;5068738;28;20325;-69
2022/09/11 06:56:46;;;;;;;9.38;8.27;;;18.70;99.90;;;;;;5067080;28;20106;-67
2022/09/11 06:59:13;;;;;;;10.98;7.88;;;19.00;99.90;;;;;;5069033;28;20731;-67
2022/09/11 07:01:39;;;;;;;9.40;8.43;;;19.20;99.90;;;;;;5069163;28;20052;-67
2022/09/11 07:04:05;;;;;;;8.95;8.05;;;19.50;99.90;;;;;;5080138;28;20043;-68
2022/09/11 07:06:30;;;;;;;13.30;10.65;;;19.80;99.90;;;;;;5069991;28;20135;-70
2022/09/11 07:09:01;;;;;;;10.23;9.02;;;20.00;99.90;;;;;;5073220;28;20051;-67
2022/09/11 07:11:31;;;;;;;10.02;8.32;;;20.10;99.90;;;;;;5073650;28;20040;-66
2022/09/11 07:13:58;;;;;;;12.15;9.60;;;20.30;99.90;;;;;;5075851;28;20530;-69
2022/09/11 07:16:24;;;;;;;10.27;9.20;;;20.60;99.90;;;;;;5075191;28;20059;-67
2022/09/11 07:18:50;;;;;;;9.27;7.80;;;20.90;99.90;;;;;;5086904;28;20051;-67
2022/09/11 07:21:21;;;;;;;12.52;8.40;;;21.00;99.90;;;;;;5096930;28;20059;-69
2022/09/11 07:23:56;;;;;;;9.10;6.57;;;21.30;99.90;;;;;;5096409;28;20419;-69
2022/09/11 07:26:23;;;;;;;7.32;6.35;;;21.40;99.90;;;;;;5093358;28;20123;-68
2022/09/11 07:28:50;;;;;;;9.35;5.93;;;21.60;99.90;;;;;;5077603;28;20048;-67
2022/09/11 07:31:21;;;;;;;8.77;5.57;;;21.70;99.90;;;;;;5077612;28;20059;-69
2022/09/11 07:33:49;;;;;;;8.13;4.70;;;21.80;99.90;;;;;;5092900;28;20044;-68
2022/09/11 07:36:16;;;;;;;6.70;5.28;;;21.90;99.90;;;;;;5093986;28;20091;-68
2022/09/11 07:38:44;;;;;;;10.68;5.82;;;22.30;99.90;;;;;;5095202;28;20056;-67
2022/09/11 07:41:10;;;;;;;6.28;5.25;;;22.40;99.90;;;;;;5092977;28;20127;-67
2022/09/11 07:43:37;;;;;;;7.03;4.82;;;22.60;99.90;;;;;;5092616;28;20144;-69
2022/09/11 07:46:04;;;;;;;10.20;6.13;;;22.80;99.90;;;;;;5080789;28;20439;-68
2022/09/11 07:48:31;;;;;;;9.32;5.18;;;22.90;99.90;;;;;;5074500;28;20047;-68
2022/09/11 07:51:03;;;;;;;7.55;5.07;;;23.10;99.90;;;;;;5074971;28;20588;-68
2022/09/11 07:53:40;;;;;;;11.00;6.18;;;23.10;99.90;;;;;;5074364;28;20044;-68
2022/09/11 07:56:11;;;;;;;8.57;6.25;;;23.20;99.90;;;;;;5074409;28;20650;-67
2022/09/11 07:58:39;;;;;;;7.90;6.80;;;23.40;99.90;;;;;;5074775;28;20112;-67
2022/09/11 08:01:08;;;;;;;8.68;5.00;;;23.60;99.90;;;;;;5074315;28;20117;-68
2022/09/11 08:03:35;;;;;;;7.55;5.05;;;23.60;99.90;;;;;;5074188;28;20415;-68
2022/09/11 08:06:03;;;;;;;7.50;5.05;;;23.60;99.90;;;;;;5073988;28;20582;-69
2022/09/11 08:08:29;;;;;;;5.05;1.95;;;23.60;99.90;;;;;;5072256;28;20534;-68
2022/09/11 08:10:56;;;;;;;6.30;1.35;;;23.70;99.90;;;;;;5073636;28;20075;-68
2022/09/11 08:13:23;;;;;;;6.20;2.00;;;23.80;99.90;;;;;;5074268;28;20120;-66
2022/09/11 08:15:49;;;;;;;7.32;3.28;;;24.00;99.90;;;;;;5091988;28;20480;-70
2022/09/11 08:18:15;;;;;;;4.45;2.03;;;24.10;99.90;;;;;;5092837;28;20040;-68
2022/09/11 08:20:41;;;;;;;5.40;2.35;;;24.00;99.90;;;;;;5092267;28;20068;-68
2022/09/11 08:23:08;;;;;;;6.60;3.08;;;24.10;99.90;;;;;;5079460;28;20048;-68
2022/09/11 08:25:37;;;;;;;5.43;2.97;;;24.00;99.90;;;;;;5093384;28;20046;-68
2022/09/11 08:28:04;;;;;;;6.45;3.50;;;24.30;99.90;;;;;;5092004;28;20104;-68
2022/09/11 08:30:31;;;;;;;8.45;3.90;;;24.10;99.90;;;;;;5092095;28;20043;-67
2022/09/11 08:32:57;;;;;;;4.80;2.53;;;24.50;99.90;;;;;;5087267;28;20048;-68
2022/09/11 08:35:23;;;;;;;5.68;2.35;;;24.40;99.90;;;;;;5073070;28;20534;-68
2022/09/11 08:37:50;;;;;;;6.90;3.10;;;24.70;99.90;;;;;;5092003;28;20048;-68
2022/09/11 08:40:15;;;;;;;5.35;2.70;;;24.90;99.90;;;;;;5080023;28;20432;-68
2022/09/11 08:42:43;;;;;;;6.32;3.25;;;24.90;99.90;;;;;;5074312;28;20051;-71
2022/09/11 08:45:14;;;;;;;5.50;2.95;;;24.90;99.90;;;;;;5074124;28;20082;-68
2022/09/11 08:47:44;;;;;;;3.97;2.95;;;24.90;99.90;;;;;;5072973;28;20056;-71
2022/09/11 08:50:26;;;;;;;4.82;2.38;;;24.90;99.90;;;;;;5071563;28;20055;-68
2022/09/11 08:52:53;;;;;;;4.80;3.20;;;25.00;99.90;;;;;;5090342;28;20082;-68
2022/09/11 08:55:34;;;;;;;6.10;3.72;;;24.70;99.90;;;;;;5071234;28;20126;-69
2022/09/11 08:58:19;;;;;;;7.63;3.58;;;24.70;99.90;;;;;;5071531;28;20112;-68
2022/09/11 09:00:53;;;;;;;6.25;3.60;;;24.90;99.90;;;;;;5082915;28;20098;-69
2022/09/11 09:03:58;;;;;;;7.00;4.38;;;25.00;99.90;;;;;;5092864;28;20543;-69
2022/09/11 09:06:34;;;;;;;7.05;4.65;;;25.30;99.90;;;;;;5079659;28;20104;-69
2022/09/11 09:09:00;;;;;;;7.32;4.32;;;25.30;99.90;;;;;;5090603;28;20462;-68
2022/09/11 09:11:29;;;;;;;6.85;4.32;;;25.20;99.90;;;;;;5090416;28;20039;-68
2022/09/11 09:14:06;;;;;;;7.35;4.65;;;25.20;99.90;;;;;;5090145;28;20050;-68
2022/09/11 09:17:07;;;;;;;6.28;4.07;;;25.10;99.90;;;;;;5076563;28;20562;-68
2022/09/11 09:19:53;;;;;;;6.32;4.35;;;24.80;99.90;;;;;;5058236;28;20051;-68
2022/09/11 09:22:42;;;;;;;7.53;5.18;;;25.00;99.90;;;;;;5070344;28;20056;-69
2022/09/11 09:25:18;;;;;;;9.20;4.93;;;25.00;99.90;;;;;;5070306;28;20048;-70
2022/09/11 09:27:50;;;;;;;8.50;4.85;;;25.20;99.90;;;;;;5070489;28;20539;-67
2022/09/11 09:30:20;;;;;;;6.33;4.40;;;24.80;99.90;;;;;;5069353;28;20518;-73
2022/09/11 09:32:59;;;;;;;5.72;3.80;;;25.20;99.90;;;;;;5069960;28;20139;-68
2022/09/11 09:35:34;;;;;;;7.07;4.18;;;25.10;99.90;;;;;;5068722;28;20081;-69
2022/09/11 09:38:00;;;;;;;6.68;3.50;;;25.50;99.90;;;;;;5069803;28;20142;-70
2022/09/11 09:40:29;;;;;;;6.57;4.40;;;25.60;99.90;;;;;;5084872;28;20036;-69
2022/09/11 09:43:18;;;;;;;4.20;2.83;;;25.70;99.90;;;;;;5089149;28;20044;-70
2022/09/11 09:46:03;;;;;;;6.80;4.28;;;25.60;99.90;;;;;;5083504;28;20465;-70
2022/09/11 09:48:34;;;;;;;5.65;2.70;;;25.50;99.90;;;;;;5088844;28;20043;-69
2022/09/11 09:51:02;;;;;;;6.07;3.08;;;26.00;99.90;;;;;;5089097;28;20039;-70
2022/09/11 09:53:34;;;;;;;5.05;2.55;;;25.90;99.90;;;;;;5087694;28;20686;-69
2022/09/11 09:56:03;;;;;;;7.07;3.40;;;26.00;99.90;;;;;;5089234;28;20043;-70
2022/09/11 09:58:37;;;;;;;5.93;3.28;;;26.20;99.90;;;;;;5089071;28;20393;-69
2022/09/11 10:01:25;;;;;;;4.15;2.88;;;26.20;99.90;;;;;;5087318;28;20090;-69
2022/09/11 10:04:10;;;;;;;4.47;2.85;;;26.20;99.90;;;;;;5089270;28;20055;-71
2022/09/11 10:06:36;;;;;;;6.80;3.70;;;26.20;99.90;;;;;;5088504;28;20101;-69
2022/09/11 10:09:01;;;;;;;3.75;1.85;;;26.50;99.90;;;;;;5089007;28;20175;-71
2022/09/11 10:11:28;;;;;;;5.47;2.35;;;26.30;99.90;;;;;;5088589;28;20047;-68
2022/09/11 10:13:54;;;;;;;3.63;2.58;;;26.60;99.90;;;;;;5088788;28;20486;-68
2022/09/11 10:16:26;;;;;;;4.93;2.70;;;26.60;99.90;;;;;;5088747;28;20421;-70
2022/09/11 10:18:53;;;;;;;3.60;0.95;;;26.60;99.90;;;;;;5069165;28;20568;-68
2022/09/11 10:21:28;;;;;;;4.55;1.50;;;26.70;99.90;;;;;;5068859;28;20443;-68
2022/09/11 10:24:02;;;;;;;4.25;2.45;;;26.70;99.90;;;;;;5069126;28;20032;-71
2022/09/11 10:26:44;;;;;;;5.80;2.30;;;26.40;99.90;;;;;;5069175;28;20051;-68
2022/09/11 10:29:16;;;;;;;7.93;3.08;;;26.50;99.90;;;;;;5084703;28;20607;-69
2022/09/11 10:31:48;;;;;;;5.72;2.30;;;26.30;99.90;;;;;;5088556;28;20619;-70
2022/09/11 10:34:17;;;;;;;6.72;2.78;;;26.40;99.90;;;;;;5089080;28;20491;-68
2022/09/11 10:37:06;;;;;;;5.93;2.33;;;26.60;99.90;;;;;;5087277;28;20682;-68
2022/09/11 10:39:35;;;;;;;5.25;2.70;;;26.90;99.90;;;;;;5076467;28;20043;-70
2022/09/11 10:42:13;;;;;;;4.97;2.30;;;26.70;99.90;;;;;;5092774;28;20589;-70
2022/09/11 10:44:42;;;;;;;5.97;2.58;;;26.80;99.90;;;;;;5073721;28;20083;-69
2022/09/11 10:47:23;;;;;;;3.75;1.63;;;27.00;99.90;;;;;;5071622;28;20122;-68
2022/09/11 10:50:09;;;;;;;4.32;2.00;;;27.20;99.90;;;;;;5073375;28;20581;-67
2022/09/11 10:52:48;;;;;;;4.82;1.70;;;27.10;99.90;;;;;;5072707;28;20567;-70
2022/09/11 10:55:15;;;;;;;3.28;1.60;;;27.10;99.90;;;;;;5070939;28;20142;-69
2022/09/11 10:57:52;;;;;;;3.92;2.10;;;26.90;99.90;;;;;;5073520;28;20052;-68
2022/09/11 11:00:20;;;;;;;4.32;2.25;;;27.30;99.90;;;;;;5072515;28;20052;-72
2022/09/11 11:02:45;;;;;;;4.75;2.03;;;27.60;99.90;;;;;;5092535;28;20059;-68
2022/09/11 11:05:40;;;;;;;2.97;2.20;;;27.40;99.90;;;;;;5092608;28;20700;-68
2022/09/11 11:08:45;;;;;;;5.78;2.38;;;27.70;99.90;;;;;;5087433;28;20413;-70
2022/09/11 11:11:32;;;;;;;3.50;2.03;;;27.80;99.90;;;;;;5095481;28;20445;-69
2022/09/11 11:14:15;;;;;;;5.35;1.77;;;27.70;99.90;;;;;;5093430;28;20052;-67
2022/09/11 11:17:13;;;;;;;4.50;1.92;;;27.30;99.90;;;;;;5095022;28;20517;-69
2022/09/11 11:19:45;;;;;;;3.47;2.00;;;26.20;99.90;;;;;;5074667;28;20613;-67
2022/09/11 11:22:49;;;;;;;3.15;2.08;;;25.30;99.90;;;;;;5085124;28;20055;-67
2022/09/11 11:25:24;;;;;;;3.90;2.75;;;24.30;99.90;;;;;;5094415;27;20124;-68
2022/09/11 11:28:10;;;;;;;4.20;1.95;;;23.60;99.90;;;;;;5075229;28;20386;-69
2022/09/11 11:30:44;;;;;;;4.10;2.15;;;23.30;99.90;;;;;;5073872;28;20105;-68
2022/09/11 11:33:45;;;;;;;4.43;2.00;;;22.70;99.90;;;;;;5073730;28;20105;-70
2022/09/11 11:36:17;;;;;;;4.80;1.73;;;22.30;99.90;;;;;;5074373;28;20489;-67
2022/09/11 11:38:59;;;;;;;4.32;0.90;;;22.10;99.90;;;;;;5074280;28;20742;-68
2022/09/11 11:41:28;;;;;;;4.28;0.80;;;22.00;99.90;;;;;;5072837;28;20043;-68
2022/09/11 11:43:56;;;;;;;2.47;1.10;;;21.80;99.90;;;;;;5072514;28;20044;-68
2022/09/11 11:46:38;;;;;;;2.75;0.73;;;21.80;99.90;;;;;;5072812;28;20051;-70
2022/09/11 11:49:25;;;;;;;4.85;2.00;;;21.60;99.90;;;;;;5072961;28;20206;-67
2022/09/11 11:51:58;;;;;;;5.70;1.52;;;21.60;99.90;;;;;;5073289;28;20563;-68
2022/09/11 11:54:36;;;;;;;2.50;1.33;;;21.30;99.90;;;;;;5073204;28;20044;-69
2022/09/11 11:57:12;;;;;;;2.88;0.90;;;21.30;99.90;;;;;;5072156;28;20530;-69
2022/09/11 11:59:49;;;;;;;5.03;1.60;;;21.30;99.90;;;;;;5072410;28;20773;-68
2022/09/11 12:02:23;;;;;;;4.43;2.03;;;21.30;99.90;;;;;;5071375;28;20462;-67
2022/09/11 12:05:01;;;;;;;2.55;1.40;;;21.30;99.90;;;;;;5071666;28;20434;-68
2022/09/11 12:07:29;;;;;;;3.85;1.48;;;21.40;99.90;;;;;;5070935;28;20058;-67
2022/09/11 12:09:57;;;;;;;2.10;0.82;;;22.20;99.90;;;;;;5070377;28;20056;-67
2022/09/11 12:12:35;;;;;;;2.70;0.70;;;23.30;99.90;;;;;;5072168;28;20619;-67
2022/09/11 12:15:15;;;;;;;3.10;0.80;;;24.50;99.90;;;;;;5071715;28;20048;-67
2022/09/11 12:17:42;;;;;;;2.45;0.50;;;25.20;99.90;;;;;;5071987;28;20664;-68
2022/09/11 12:20:10;;;;;;;3.40;0.70;;;25.90;99.90;;;;;;5089507;28;20078;-69
2022/09/11 12:22:37;;;;;;;3.78;2.00;;;26.30;99.90;;;;;;5092448;27;20589;-67
2022/09/11 12:25:24;;;;;;;4.15;0.82;;;26.60;99.90;;;;;;5090259;28;20134;-70
2022/09/11 12:28:08;;;;;;;1.35;0.73;;;27.10;99.90;;;;;;5091224;28;20334;-68
2022/09/11 12:30:54;;;;;;;2.00;0.70;;;27.00;99.90;;;;;;5073927;28;20083;-70
2022/09/11 12:33:56;;;;;;;2.22;0.60;;;27.30;99.90;;;;;;5071962;28;20039;-70
2022/09/11 12:36:35;;;;;;;2.40;0.50;;;27.60;99.90;;;;;;5061672;28;20052;-70
2022/09/11 12:39:26;;;;;;;3.25;0.93;;;27.50;99.90;;;;;;5084736;28;20338;-68
2022/09/11 12:41:52;;;;;;;3.33;1.42;;;27.80;99.90;;;;;;5089430;28;20059;-71
2022/09/11 12:44:51;;;;;;;1.92;0.60;;;27.90;99.90;;;;;;5089315;28;20408;-67
2022/09/11 12:47:19;;;;;;;2.78;0.60;;;28.00;99.90;;;;;;5090135;28;20448;-71
2022/09/11 12:49:52;;;;;;;2.40;0.60;;;28.10;99.90;;;;;;5089975;28;20047;-70
2022/09/11 12:52:28;;;;;;;2.53;0.65;;;27.80;99.90;;;;;;5090098;28;20048;-68
2022/09/11 12:54:54;;;;;;;2.45;0.55;;;27.90;99.90;;;;;;5082896;28;20048;-69
2022/09/11 12:57:34;;;;;;;2.90;0.70;;;27.90;99.90;;;;;;5089766;28;20083;-68
2022/09/11 13:00:10;;;;;;;2.28;0.60;;;28.00;99.90;;;;;;5076534;28;20054;-71
2022/09/11 13:02:41;;;;;;;4.10;0.50;;;27.90;99.90;;;;;;5085067;28;20063;-67